sensor_id;sensor_type;location;lat;lon;timestamp;pressure;altitude;pressure_sealevel;temperature;humidity
64876;BME280;51369;49.862;9.908;2022-11-03T00:01:02;98852.72;;;6.91;82.21
64876;BME280;51369;49.862;9.908;2022-11-03T00:03:27;98847.34;;;6.91;82.54
64876;BME280;51369;49.862;9.908;2022-11-03T00:05:53;98847.34;;;6.91;82.07
64876;BME280;51369;49.862;9.908;2022-11-03T00:11:04;98843.84;;;6.87;81.78
64876;BME280;51369;49.862;9.908;2022-11-03T00:13:30;98836.72;;;6.84;81.87
64876;BME280;51369;49.862;9.908;2022-11-03T00:15:55;98823.34;;;6.83;81.81
64876;BME280;51369;49.862;9.908;2022-11-03T00:18:20;98819.81;;;6.81;81.33
64876;BME280;51369;49.862;9.908;2022-11-03T00:21:12;98810.06;;;6.77;81.41
64876;BME280;51369;49.862;9.908;2022-11-03T00:23:40;98808.28;;;6.76;81.72
64876;BME280;51369;49.862;9.908;2022-11-03T00:26:19;98809.25;;;6.72;82.11
64876;BME280;51369;49.862;9.908;2022-11-03T00:28:50;98805.69;;;6.71;82.18
64876;BME280;51369;49.862;9.908;2022-11-03T00:31:35;98814.69;;;6.69;82.04
64876;BME280;51369;49.862;9.908;2022-11-03T00:34:02;98820.94;;;6.69;81.77
64876;BME280;51369;49.862;9.908;2022-11-03T00:36:30;98810.22;;;6.69;81.95
64876;BME280;51369;49.862;9.908;2022-11-03T00:38:56;98801.28;;;6.69;81.96
64876;BME280;51369;49.862;9.908;2022-11-03T00:41:22;98803.09;;;6.67;81.48
64876;BME280;51369;49.862;9.908;2022-11-03T00:43:48;98792.41;;;6.65;81.53
64876;BME280;51369;49.862;9.908;2022-11-03T00:46:15;98797.84;;;6.62;81.67
64876;BME280;51369;49.862;9.908;2022-11-03T00:48:41;98793.41;;;6.60;81.18
64876;BME280;51369;49.862;9.908;2022-11-03T00:53:46;98798.00;;;6.53;81.06
64876;BME280;51369;49.862;9.908;2022-11-03T00:56:23;98785.59;;;6.49;81.38
64876;BME280;51369;49.862;9.908;2022-11-03T00:58:50;98790.00;;;6.51;81.30
64876;BME280;51369;49.862;9.908;2022-11-03T01:01:18;98788.19;;;6.52;81.63
64876;BME280;51369;49.862;9.908;2022-11-03T01:03:46;98783.72;;;6.52;81.75
64876;BME280;51369;49.862;9.908;2022-11-03T01:06:32;98790.03;;;6.50;82.01
64876;BME280;51369;49.862;9.908;2022-11-03T01:09:20;98779.34;;;6.48;81.92
64876;BME280;51369;49.862;9.908;2022-11-03T01:14:31;98773.97;;;6.48;81.81
64876;BME280;51369;49.862;9.908;2022-11-03T01:16:58;98772.19;;;6.47;82.05
64876;BME280;51369;49.862;9.908;2022-11-03T01:19:24;98775.78;;;6.46;82.05
64876;BME280;51369;49.862;9.908;2022-11-03T01:21:51;98762.41;;;6.45;82.37
64876;BME280;51369;49.862;9.908;2022-11-03T01:24:16;98760.66;;;6.44;82.43
64876;BME280;51369;49.862;9.908;2022-11-03T01:26:42;98760.66;;;6.44;82.36
64876;BME280;51369;49.862;9.908;2022-11-03T01:29:07;98756.22;;;6.41;82.43
64876;BME280;51369;49.862;9.908;2022-11-03T01:31:33;98755.38;;;6.39;82.23
64876;BME280;51369;49.862;9.908;2022-11-03T01:33:58;98746.44;;;6.39;82.42
64876;BME280;51369;49.862;9.908;2022-11-03T01:36:24;98744.72;;;6.36;82.19
64876;BME280;51369;49.862;9.908;2022-11-03T01:38:50;98741.13;;;6.36;82.28
64876;BME280;51369;49.862;9.908;2022-11-03T01:41:20;98746.50;;;6.36;82.14
64876;BME280;51369;49.862;9.908;2022-11-03T01:43:49;98727.75;;;6.34;82.50
64876;BME280;51369;49.862;9.908;2022-11-03T01:46:22;98729.56;;;6.34;82.66
64876;BME280;51369;49.862;9.908;2022-11-03T01:49:02;98715.31;;;6.32;82.36
64876;BME280;51369;49.862;9.908;2022-11-03T01:51:31;98712.63;;;6.32;82.53
64876;BME280;51369;49.862;9.908;2022-11-03T01:53:59;98702.78;;;6.32;82.66
64876;BME280;51369;49.862;9.908;2022-11-03T01:56:28;98694.75;;;6.31;82.53
64876;BME280;51369;49.862;9.908;2022-11-03T01:58:55;98700.13;;;6.31;82.47
64876;BME280;51369;49.862;9.908;2022-11-03T02:01:21;98697.47;;;6.29;82.36
64876;BME280;51369;49.862;9.908;2022-11-03T02:03:53;98698.41;;;6.27;81.95
64876;BME280;51369;49.862;9.908;2022-11-03T02:06:21;98692.25;;;6.23;82.01
64876;BME280;51369;49.862;9.908;2022-11-03T02:08:52;98693.22;;;6.19;81.16
64876;BME280;51369;49.862;9.908;2022-11-03T02:11:19;98698.63;;;6.16;81.52
64876;BME280;51369;49.862;9.908;2022-11-03T02:14:03;98699.56;;;6.15;81.99
64876;BME280;51369;49.862;9.908;2022-11-03T02:16:30;98693.34;;;6.13;81.95
64876;BME280;51369;49.862;9.908;2022-11-03T02:18:59;98686.22;;;6.12;82.17
64876;BME280;51369;49.862;9.908;2022-11-03T02:21:29;98684.41;;;6.12;82.08
64876;BME280;51369;49.862;9.908;2022-11-03T02:24:18;98678.19;;;6.10;82.42
64876;BME280;51369;49.862;9.908;2022-11-03T02:26:47;98671.88;;;6.13;82.41
64876;BME280;51369;49.862;9.908;2022-11-03T02:29:15;98667.38;;;6.15;82.80
64876;BME280;51369;49.862;9.908;2022-11-03T02:31:42;98662.03;;;6.15;82.93
64876;BME280;51369;49.862;9.908;2022-11-03T02:34:20;98662.03;;;6.15;82.99
64876;BME280;51369;49.862;9.908;2022-11-03T02:36:58;98653.97;;;6.15;82.53
64876;BME280;51369;49.862;9.908;2022-11-03T02:39:30;98653.06;;;6.16;82.76
64876;BME280;51369;49.862;9.908;2022-11-03T02:42:01;98650.34;;;6.17;82.56
64876;BME280;51369;49.862;9.908;2022-11-03T02:44:28;98653.94;;;6.16;82.71
64876;BME280;51369;49.862;9.908;2022-11-03T02:46:57;98653.06;;;6.16;82.27
64876;BME280;51369;49.862;9.908;2022-11-03T02:49:24;98648.56;;;6.18;82.50
64876;BME280;51369;49.862;9.908;2022-11-03T02:52:00;98647.72;;;6.14;82.65
64876;BME280;51369;49.862;9.908;2022-11-03T02:54:30;98649.53;;;6.14;82.26
64876;BME280;51369;49.862;9.908;2022-11-03T02:57:05;98639.75;;;6.11;82.09
64876;BME280;51369;49.862;9.908;2022-11-03T02:59:42;98643.31;;;6.12;82.31
64876;BME280;51369;49.862;9.908;2022-11-03T03:02:12;98637.94;;;6.13;82.35
64876;BME280;51369;49.862;9.908;2022-11-03T03:04:44;98629.88;;;6.13;83.04
64876;BME280;51369;49.862;9.908;2022-11-03T03:07:16;98630.75;;;6.14;83.17
64876;BME280;51369;49.862;9.908;2022-11-03T03:09:45;98623.59;;;6.14;82.88
64876;BME280;51369;49.862;9.908;2022-11-03T03:12:16;98628.09;;;6.14;83.33
64876;BME280;51369;49.862;9.908;2022-11-03T03:14:45;98624.53;;;6.13;83.21
64876;BME280;51369;49.862;9.908;2022-11-03T03:17:23;98624.53;;;6.13;83.38
64876;BME280;51369;49.862;9.908;2022-11-03T03:20:08;98622.78;;;6.11;82.84
64876;BME280;51369;49.862;9.908;2022-11-03T03:22:48;98615.66;;;6.10;82.88
64876;BME280;51369;49.862;9.908;2022-11-03T03:25:21;98614.78;;;6.09;83.10
64876;BME280;51369;49.862;9.908;2022-11-03T03:27:53;98616.53;;;6.10;83.44
64876;BME280;51369;49.862;9.908;2022-11-03T03:30:21;98618.31;;;6.11;83.10
64876;BME280;51369;49.862;9.908;2022-11-03T03:32:48;98613.84;;;6.12;83.26
64876;BME280;51369;49.862;9.908;2022-11-03T03:35:18;98611.19;;;6.10;83.29
64876;BME280;51369;49.862;9.908;2022-11-03T03:37:47;98618.34;;;6.10;83.16
64876;BME280;51369;49.862;9.908;2022-11-03T03:40:20;98607.66;;;6.08;83.31
64876;BME280;51369;49.862;9.908;2022-11-03T03:42:47;98604.97;;;6.08;83.29
64876;BME280;51369;49.862;9.908;2022-11-03T03:45:14;98604.09;;;6.08;83.27
64876;BME280;51369;49.862;9.908;2022-11-03T03:47:40;98602.31;;;6.07;83.15
64876;BME280;51369;49.862;9.908;2022-11-03T03:50:06;98594.28;;;6.07;83.21
64876;BME280;51369;49.862;9.908;2022-11-03T03:52:35;98599.72;;;6.04;82.67
64876;BME280;51369;49.862;9.908;2022-11-03T03:55:02;98592.63;;;6.01;82.24
64876;BME280;51369;49.862;9.908;2022-11-03T03:57:29;98591.81;;;5.96;82.43
64876;BME280;51369;49.862;9.908;2022-11-03T03:59:56;98587.38;;;5.95;82.15
64876;BME280;51369;49.862;9.908;2022-11-03T04:02:22;98584.69;;;5.95;82.33
64876;BME280;51369;49.862;9.908;2022-11-03T04:04:47;98584.66;;;5.97;82.42
64876;BME280;51369;49.862;9.908;2022-11-03T04:07:13;98578.41;;;5.98;83.31
64876;BME280;51369;49.862;9.908;2022-11-03T04:09:57;98574.81;;;5.99;83.45
64876;BME280;51369;49.862;9.908;2022-11-03T04:12:22;98576.56;;;6.00;82.99
64876;BME280;51369;49.862;9.908;2022-11-03T04:15:11;98578.41;;;5.98;83.36
64876;BME280;51369;49.862;9.908;2022-11-03T04:17:55;98576.63;;;5.97;82.80
64876;BME280;51369;49.862;9.908;2022-11-03T04:20:39;98572.22;;;5.94;82.89
64876;BME280;51369;49.862;9.908;2022-11-03T04:23:22;98569.59;;;5.91;82.25
64876;BME280;51369;49.862;9.908;2022-11-03T04:25:51;98558.06;;;5.86;82.13
64876;BME280;51369;49.862;9.908;2022-11-03T04:28:17;98554.53;;;5.84;82.36
64876;BME280;51369;49.862;9.908;2022-11-03T04:30:43;98551.84;;;5.84;82.17
64876;BME280;51369;49.862;9.908;2022-11-03T04:33:13;98557.25;;;5.82;82.23
64876;BME280;51369;49.862;9.908;2022-11-03T04:35:39;98553.72;;;5.80;81.95
64876;BME280;51369;49.862;9.908;2022-11-03T04:40:48;98544.03;;;5.73;81.86
64876;BME280;51369;49.862;9.908;2022-11-03T04:43:15;98543.13;;;5.74;81.69
64876;BME280;51369;49.862;9.908;2022-11-03T04:45:43;98533.31;;;5.73;82.17
64876;BME280;51369;49.862;9.908;2022-11-03T04:48:14;98523.53;;;5.72;82.37
64876;BME280;51369;49.862;9.908;2022-11-03T04:50:40;98527.13;;;5.71;82.13
64876;BME280;51369;49.862;9.908;2022-11-03T04:53:12;98524.50;;;5.68;82.05
64876;BME280;51369;49.862;9.908;2022-11-03T04:55:42;98526.28;;;5.68;81.41
64876;BME280;51369;49.862;9.908;2022-11-03T04:58:18;98518.34;;;5.63;81.38
64876;BME280;51369;49.862;9.908;2022-11-03T05:00:44;98513.94;;;5.61;80.89
64876;BME280;51369;49.862;9.908;2022-11-03T05:03:14;98510.47;;;5.55;80.71
64876;BME280;51369;49.862;9.908;2022-11-03T05:05:41;98503.41;;;5.51;80.55
64876;BME280;51369;49.862;9.908;2022-11-03T05:08:08;98503.50;;;5.47;80.84
64876;BME280;51369;49.862;9.908;2022-11-03T05:10:34;98497.34;;;5.43;80.92
64876;BME280;51369;49.862;9.908;2022-11-03T05:12:59;98490.25;;;5.41;80.61
64876;BME280;51369;49.862;9.908;2022-11-03T05:15:34;98493.91;;;5.37;81.11
64876;BME280;51369;49.862;9.908;2022-11-03T05:18:08;98491.22;;;5.37;81.22
64876;BME280;51369;49.862;9.908;2022-11-03T05:20:43;98495.69;;;5.36;81.20
64876;BME280;51369;49.862;9.908;2022-11-03T05:23:10;98500.16;;;5.36;81.17
64876;BME280;51369;49.862;9.908;2022-11-03T05:25:42;98493.06;;;5.35;82.23
64876;BME280;51369;49.862;9.908;2022-11-03T05:28:18;98495.75;;;5.33;81.83
64876;BME280;51369;49.862;9.908;2022-11-03T05:30:46;98485.03;;;5.33;82.08
64876;BME280;51369;49.862;9.908;2022-11-03T05:33:17;98487.72;;;5.33;81.83
64876;BME280;51369;49.862;9.908;2022-11-03T05:35:44;98485.00;;;5.36;82.92
64876;BME280;51369;49.862;9.908;2022-11-03T05:38:11;98492.91;;;5.42;82.98
64876;BME280;51369;49.862;9.908;2022-11-03T05:40:39;98466.06;;;5.45;83.39
64876;BME280;51369;49.862;9.908;2022-11-03T05:43:07;98474.91;;;5.49;84.03
64876;BME280;51369;49.862;9.908;2022-11-03T05:45:36;98477.53;;;5.52;83.55
64876;BME280;51369;49.862;9.908;2022-11-03T05:48:11;98464.94;;;5.55;84.40
64876;BME280;51369;49.862;9.908;2022-11-03T05:50:39;98475.56;;;5.60;83.90
64876;BME280;51369;49.862;9.908;2022-11-03T05:55:34;98473.66;;;5.65;84.59
64876;BME280;51369;49.862;9.908;2022-11-03T05:58:04;98462.00;;;5.68;84.24
64876;BME280;51369;49.862;9.908;2022-11-03T06:00:38;98459.22;;;5.72;84.22
64876;BME280;51369;49.862;9.908;2022-11-03T06:03:05;98465.44;;;5.74;84.23
64876;BME280;51369;49.862;9.908;2022-11-03T06:05:31;98468.06;;;5.76;84.48
64876;BME280;51369;49.862;9.908;2022-11-03T06:08:00;98470.78;;;5.74;83.85
64876;BME280;51369;49.862;9.908;2022-11-03T06:10:28;98476.19;;;5.73;84.05
64876;BME280;51369;49.862;9.908;2022-11-03T06:12:58;98467.34;;;5.69;83.84
64876;BME280;51369;49.862;9.908;2022-11-03T06:15:28;98466.44;;;5.69;83.40
64876;BME280;51369;49.862;9.908;2022-11-03T06:17:53;98461.06;;;5.70;83.73
64876;BME280;51369;49.862;9.908;2022-11-03T06:20:20;98460.19;;;5.70;83.47
64876;BME280;51369;49.862;9.908;2022-11-03T06:22:47;98466.41;;;5.70;83.82
64876;BME280;51369;49.862;9.908;2022-11-03T06:25:32;98460.16;;;5.71;83.57
64876;BME280;51369;49.862;9.908;2022-11-03T06:28:02;98460.94;;;5.76;83.86
64876;BME280;51369;49.862;9.908;2022-11-03T06:30:30;98454.72;;;5.74;83.52
64876;BME280;51369;49.862;9.908;2022-11-03T06:33:03;98452.91;;;5.75;83.36
64876;BME280;51369;49.862;9.908;2022-11-03T06:35:31;98451.97;;;5.77;83.25
64876;BME280;51369;49.862;9.908;2022-11-03T06:37:56;98448.38;;;5.78;83.45
64876;BME280;51369;49.862;9.908;2022-11-03T06:42:51;98441.25;;;5.77;82.40
64876;BME280;51369;49.862;9.908;2022-11-03T06:45:20;98436.75;;;5.79;82.87
64876;BME280;51369;49.862;9.908;2022-11-03T06:47:47;98441.19;;;5.80;82.55
64876;BME280;51369;49.862;9.908;2022-11-03T06:50:24;98434.94;;;5.80;82.25
64876;BME280;51369;49.862;9.908;2022-11-03T06:52:52;98434.00;;;5.82;82.01
64876;BME280;51369;49.862;9.908;2022-11-03T06:55:40;98425.03;;;5.83;82.31
64876;BME280;51369;49.862;9.908;2022-11-03T06:58:26;98424.09;;;5.86;82.11
64876;BME280;51369;49.862;9.908;2022-11-03T07:00:54;98431.19;;;5.90;81.79
64876;BME280;51369;49.862;9.908;2022-11-03T07:03:25;98427.47;;;5.96;82.02
64876;BME280;51369;49.862;9.908;2022-11-03T07:05:59;98428.25;;;6.01;82.29
64876;BME280;51369;49.862;9.908;2022-11-03T07:08:32;98411.09;;;6.08;82.37
64876;BME280;51369;49.862;9.908;2022-11-03T07:13:31;98410.75;;;6.22;83.05
64876;BME280;51369;49.862;9.908;2022-11-03T07:15:59;98413.28;;;6.28;82.87
64876;BME280;51369;49.862;9.908;2022-11-03T07:18:30;98409.66;;;6.30;82.25
64876;BME280;51369;49.862;9.908;2022-11-03T07:21:03;98409.56;;;6.33;82.22
64876;BME280;51369;49.862;9.908;2022-11-03T07:23:29;98406.75;;;6.39;82.01
64876;BME280;51369;49.862;9.908;2022-11-03T07:25:59;98397.66;;;6.45;82.31
64876;BME280;51369;49.862;9.908;2022-11-03T07:28:34;98397.50;;;6.51;82.99
64876;BME280;51369;49.862;9.908;2022-11-03T07:31:09;98392.84;;;6.58;82.94
64876;BME280;51369;49.862;9.908;2022-11-03T07:33:38;98389.09;;;6.65;82.94
64876;BME280;51369;49.862;9.908;2022-11-03T07:36:05;98389.88;;;6.68;82.91
64876;BME280;51369;49.862;9.908;2022-11-03T07:38:31;98388.84;;;6.74;82.55
64876;BME280;51369;49.862;9.908;2022-11-03T07:40:58;98384.16;;;6.82;83.23
64876;BME280;51369;49.862;9.908;2022-11-03T07:43:29;98382.16;;;6.89;83.46
64876;BME280;51369;49.862;9.908;2022-11-03T07:45:58;98378.31;;;6.97;83.25
64876;BME280;51369;49.862;9.908;2022-11-03T07:48:42;98371.00;;;7.02;83.18
64876;BME280;51369;49.862;9.908;2022-11-03T07:53:45;98358.16;;;7.13;82.48
64876;BME280;51369;49.862;9.908;2022-11-03T07:56:26;98359.88;;;7.16;82.05
64876;BME280;51369;49.862;9.908;2022-11-03T08:01:39;98353.25;;;7.28;81.91
64876;BME280;51369;49.862;9.908;2022-11-03T08:04:07;98353.13;;;7.32;81.71
64876;BME280;51369;49.862;9.908;2022-11-03T08:06:34;98347.56;;;7.38;81.91
64876;BME280;51369;49.862;9.908;2022-11-03T08:08:59;98344.69;;;7.44;81.70
64876;BME280;51369;49.862;9.908;2022-11-03T08:11:25;98340.00;;;7.51;82.31
64876;BME280;51369;49.862;9.908;2022-11-03T08:13:51;98333.47;;;7.60;82.72
64876;BME280;51369;49.862;9.908;2022-11-03T08:16:17;98325.16;;;7.67;82.46
64876;BME280;51369;49.862;9.908;2022-11-03T08:18:42;98328.41;;;7.78;82.54
64876;BME280;51369;49.862;9.908;2022-11-03T08:21:08;98320.91;;;7.88;82.73
64876;BME280;51369;49.862;9.908;2022-11-03T08:23:33;98310.72;;;7.98;82.94
64876;BME280;51369;49.862;9.908;2022-11-03T08:25:59;98309.50;;;8.08;83.23
64876;BME280;51369;49.862;9.908;2022-11-03T08:28:25;98307.38;;;8.18;83.04
64876;BME280;51369;49.862;9.908;2022-11-03T08:30:50;98308.88;;;8.26;83.83
64876;BME280;51369;49.862;9.908;2022-11-03T08:33:16;98304.97;;;8.36;83.16
64876;BME280;51369;49.862;9.908;2022-11-03T08:35:41;98295.75;;;8.43;83.66
64876;BME280;51369;49.862;9.908;2022-11-03T08:38:07;98291.84;;;8.52;82.81
64876;BME280;51369;49.862;9.908;2022-11-03T08:40:32;98281.69;;;8.60;82.95
64876;BME280;51369;49.862;9.908;2022-11-03T08:42:57;98272.38;;;8.69;82.82
64876;BME280;51369;49.862;9.908;2022-11-03T08:45:24;98275.66;;;8.77;83.13
64876;BME280;51369;49.862;9.908;2022-11-03T08:47:49;98269.09;;;8.84;82.67
64876;BME280;51369;49.862;9.908;2022-11-03T08:50:15;98266.13;;;8.92;82.91
64876;BME280;51369;49.862;9.908;2022-11-03T08:52:40;98254.19;;;8.99;83.59
64876;BME280;51369;49.862;9.908;2022-11-03T08:55:06;98235.75;;;9.11;83.47
64876;BME280;51369;49.862;9.908;2022-11-03T08:57:31;98239.66;;;9.26;83.90
64876;BME280;51369;49.862;9.908;2022-11-03T08:59:57;98239.16;;;9.38;84.70
64876;BME280;51369;49.862;9.908;2022-11-03T09:02:23;98235.16;;;9.49;83.33
64876;BME280;51369;49.862;9.908;2022-11-03T09:04:48;98232.09;;;9.58;83.91
64876;BME280;51369;49.862;9.908;2022-11-03T09:07:13;98228.94;;;9.68;84.33
64876;BME280;51369;49.862;9.908;2022-11-03T09:09:39;98226.69;;;9.79;83.70
64876;BME280;51369;49.862;9.908;2022-11-03T09:12:04;98221.72;;;9.91;83.65
64876;BME280;51369;49.862;9.908;2022-11-03T09:14:30;98220.19;;;10.05;84.60
64876;BME280;51369;49.862;9.908;2022-11-03T09:16:55;98215.13;;;10.18;84.05
64876;BME280;51369;49.862;9.908;2022-11-03T09:19:21;98207.34;;;10.32;84.18
64876;BME280;51369;49.862;9.908;2022-11-03T09:21:47;98206.75;;;10.44;83.92
64876;BME280;51369;49.862;9.908;2022-11-03T09:24:12;98205.34;;;10.56;84.73
64876;BME280;51369;49.862;9.908;2022-11-03T09:26:37;98201.19;;;10.68;83.84
64876;BME280;51369;49.862;9.908;2022-11-03T09:29:03;98192.53;;;10.80;84.00
64876;BME280;51369;49.862;9.908;2022-11-03T09:31:28;98173.13;;;10.91;83.52
64876;BME280;51369;49.862;9.908;2022-11-03T09:33:54;98175.31;;;11.01;82.47
64876;BME280;51369;49.862;9.908;2022-11-03T09:36:19;98161.28;;;11.12;82.52
64876;BME280;51369;49.862;9.908;2022-11-03T09:38:45;98150.03;;;11.21;82.56
64876;BME280;51369;49.862;9.908;2022-11-03T09:41:10;98148.56;;;11.33;81.59
64876;BME280;51369;49.862;9.908;2022-11-03T09:43:45;98148.03;;;11.44;81.64
64876;BME280;51369;49.862;9.908;2022-11-03T09:46:12;98147.50;;;11.54;82.17
64876;BME280;51369;49.862;9.908;2022-11-03T09:48:39;98140.69;;;11.64;81.51
64876;BME280;51369;49.862;9.908;2022-11-03T09:51:04;98134.78;;;11.73;81.23
64876;BME280;51369;49.862;9.908;2022-11-03T09:53:33;98140.66;;;11.83;80.55
64876;BME280;51369;49.862;9.908;2022-11-03T09:55:58;98147.41;;;11.92;81.02
64876;BME280;51369;49.862;9.908;2022-11-03T09:58:24;98151.47;;;12.00;80.90
64876;BME280;51369;49.862;9.908;2022-11-03T10:00:50;98148.28;;;12.10;80.41
64876;BME280;51369;49.862;9.908;2022-11-03T10:03:16;98151.44;;;12.18;80.31
64876;BME280;51369;49.862;9.908;2022-11-03T10:05:43;98153.72;;;12.25;79.88
64876;BME280;51369;49.862;9.908;2022-11-03T10:08:30;98155.16;;;12.32;79.63
64876;BME280;51369;49.862;9.908;2022-11-03T10:10:56;98156.41;;;12.43;79.60
64876;BME280;51369;49.862;9.908;2022-11-03T10:13:27;98159.59;;;12.51;78.89
64876;BME280;51369;49.862;9.908;2022-11-03T10:15:54;98149.22;;;12.59;78.76
64876;BME280;51369;49.862;9.908;2022-11-03T10:18:20;98147.94;;;12.66;78.02
64876;BME280;51369;49.862;9.908;2022-11-03T10:20:45;98139.47;;;12.72;78.02
64876;BME280;51369;49.862;9.908;2022-11-03T10:23:11;98126.44;;;12.79;78.59
64876;BME280;51369;49.862;9.908;2022-11-03T10:25:42;98133.19;;;12.87;77.76
64876;BME280;51369;49.862;9.908;2022-11-03T10:28:15;98116.50;;;12.95;77.75
64876;BME280;51369;49.862;9.908;2022-11-03T10:33:37;98107.69;;;13.07;76.81
64876;BME280;51369;49.862;9.908;2022-11-03T10:36:05;98101.78;;;13.16;77.60
64876;BME280;51369;49.862;9.908;2022-11-03T10:38:46;98094.84;;;13.26;77.05
64876;BME280;51369;49.862;9.908;2022-11-03T10:41:23;98085.31;;;13.35;76.97
64876;BME280;51369;49.862;9.908;2022-11-03T10:46:38;98079.69;;;13.54;76.62
64876;BME280;51369;49.862;9.908;2022-11-03T10:49:13;98067.50;;;13.61;76.35
64876;BME280;51369;49.862;9.908;2022-11-03T10:51:40;98064.25;;;13.70;76.05
64876;BME280;51369;49.862;9.908;2022-11-03T10:54:13;98061.94;;;13.78;76.03
64876;BME280;51369;49.862;9.908;2022-11-03T10:56:41;98050.41;;;13.89;75.81
64876;BME280;51369;49.862;9.908;2022-11-03T10:59:18;98036.44;;;13.95;75.85
64876;BME280;51369;49.862;9.908;2022-11-03T11:01:44;98040.34;;;14.05;75.70
64876;BME280;51369;49.862;9.908;2022-11-03T11:04:17;98044.50;;;14.11;75.33
64876;BME280;51369;49.862;9.908;2022-11-03T11:06:43;98024.06;;;14.19;75.43
64876;BME280;51369;49.862;9.908;2022-11-03T11:09:11;98020.00;;;14.26;75.33
64876;BME280;51369;49.862;9.908;2022-11-03T11:11:37;98010.50;;;14.33;75.27
64876;BME280;51369;49.862;9.908;2022-11-03T11:14:33;98001.19;;;14.38;75.16
64876;BME280;51369;49.862;9.908;2022-11-03T11:17:02;98003.44;;;14.45;74.46
64876;BME280;51369;49.862;9.908;2022-11-03T11:19:28;97991.41;;;14.49;74.44
64876;BME280;51369;49.862;9.908;2022-11-03T11:30:03;97988.16;;;14.71;73.46
64876;BME280;51369;49.862;9.908;2022-11-03T11:35:00;97984.75;;;14.82;73.90
64876;BME280;51369;49.862;9.908;2022-11-03T11:39:51;97974.91;;;14.93;73.64
64876;BME280;51369;49.862;9.908;2022-11-03T11:42:18;97967.09;;;15.02;73.75
64876;BME280;51369;49.862;9.908;2022-11-03T11:44:50;97953.19;;;15.06;73.72
64876;BME280;51369;49.862;9.908;2022-11-03T11:47:45;97942.00;;;15.11;73.16
64876;BME280;51369;49.862;9.908;2022-11-03T11:50:22;97932.47;;;15.18;73.33
64876;BME280;51369;49.862;9.908;2022-11-03T11:55:29;97941.63;;;15.29;73.18
64876;BME280;51369;49.862;9.908;2022-11-03T11:57:57;97928.47;;;15.36;73.46
64876;BME280;51369;49.862;9.908;2022-11-03T12:00:26;97913.69;;;15.40;73.34
64876;BME280;51369;49.862;9.908;2022-11-03T12:02:53;97907.06;;;15.44;73.14
64876;BME280;51369;49.862;9.908;2022-11-03T12:05:21;97905.97;;;15.47;72.78
64876;BME280;51369;49.862;9.908;2022-11-03T12:07:47;97892.16;;;15.50;72.93
64876;BME280;51369;49.862;9.908;2022-11-03T12:10:18;97881.16;;;15.51;73.06
64876;BME280;51369;49.862;9.908;2022-11-03T12:12:43;97881.94;;;15.53;72.78
64876;BME280;51369;49.862;9.908;2022-11-03T12:20:59;97855.59;;;15.67;72.70
64876;BME280;51369;49.862;9.908;2022-11-03T12:26:00;97856.13;;;15.84;73.26
64876;BME280;51369;49.862;9.908;2022-11-03T12:28:33;97856.31;;;15.94;73.20
64876;BME280;51369;49.862;9.908;2022-11-03T12:31:00;97849.22;;;16.04;72.45
64876;BME280;51369;49.862;9.908;2022-11-03T12:33:27;97844.19;;;16.11;71.99
64876;BME280;51369;49.862;9.908;2022-11-03T12:35:54;97842.75;;;16.18;71.11
64876;BME280;51369;49.862;9.908;2022-11-03T12:38:20;97837.84;;;16.23;71.11
64876;BME280;51369;49.862;9.908;2022-11-03T12:40:46;97822.16;;;16.26;70.88
64876;BME280;51369;49.862;9.908;2022-11-03T12:43:11;97822.91;;;16.28;70.68
64876;BME280;51369;49.862;9.908;2022-11-03T12:45:36;97820.94;;;16.31;70.26
64876;BME280;51369;49.862;9.908;2022-11-03T12:48:02;97817.97;;;16.34;70.62
64876;BME280;51369;49.862;9.908;2022-11-03T12:50:28;97820.72;;;16.34;70.81
64876;BME280;51369;49.862;9.908;2022-11-03T12:52:54;97832.47;;;16.34;71.06
64876;BME280;51369;49.862;9.908;2022-11-03T12:55:19;97836.06;;;16.35;71.16
64876;BME280;51369;49.862;9.908;2022-11-03T12:57:45;97836.06;;;16.35;70.41
64876;BME280;51369;49.862;9.908;2022-11-03T13:00:11;97845.13;;;16.35;70.73
64876;BME280;51369;49.862;9.908;2022-11-03T13:02:37;97835.97;;;16.36;70.66
64876;BME280;51369;49.862;9.908;2022-11-03T13:05:04;97835.09;;;16.36;70.41
64876;BME280;51369;49.862;9.908;2022-11-03T13:07:30;97824.19;;;16.36;70.32
64876;BME280;51369;49.862;9.908;2022-11-03T13:09:55;97809.69;;;16.35;70.42
64876;BME280;51369;49.862;9.908;2022-11-03T13:12:21;97806.97;;;16.35;70.01
64876;BME280;51369;49.862;9.908;2022-11-03T13:14:56;97792.72;;;16.32;69.88
64876;BME280;51369;49.862;9.908;2022-11-03T13:17:22;97786.50;;;16.30;69.95
64876;BME280;51369;49.862;9.908;2022-11-03T13:19:47;97775.84;;;16.26;69.41
64876;BME280;51369;49.862;9.908;2022-11-03T13:22:13;97771.50;;;16.24;69.51
64876;BME280;51369;49.862;9.908;2022-11-03T13:24:38;97763.66;;;16.19;69.88
64876;BME280;51369;49.862;9.908;2022-11-03T13:27:03;97749.53;;;16.14;69.66
64876;BME280;51369;49.862;9.908;2022-11-03T13:29:29;97753.47;;;16.10;69.50
64876;BME280;51369;49.862;9.908;2022-11-03T13:31:54;97743.66;;;16.08;69.62
64876;BME280;51369;49.862;9.908;2022-11-03T13:34:20;97742.28;;;16.02;69.88
64876;BME280;51369;49.862;9.908;2022-11-03T13:36:45;97724.44;;;15.98;70.26
64876;BME280;51369;49.862;9.908;2022-11-03T13:39:10;97726.63;;;15.93;70.40
64876;BME280;51369;49.862;9.908;2022-11-03T13:41:36;97724.13;;;15.90;70.26
64876;BME280;51369;49.862;9.908;2022-11-03T13:44:02;97731.53;;;15.88;70.91
64876;BME280;51369;49.862;9.908;2022-11-03T13:46:27;97722.75;;;15.84;70.92
64876;BME280;51369;49.862;9.908;2022-11-03T13:48:53;97728.53;;;15.80;70.71
64876;BME280;51369;49.862;9.908;2022-11-03T13:51:18;97722.31;;;15.78;70.97
64876;BME280;51369;49.862;9.908;2022-11-03T13:53:45;97720.81;;;15.74;70.64
64876;BME280;51369;49.862;9.908;2022-11-03T13:56:11;97718.31;;;15.71;71.05
64876;BME280;51369;49.862;9.908;2022-11-03T13:58:37;97704.06;;;15.67;71.05
64876;BME280;51369;49.862;9.908;2022-11-03T14:01:02;97708.88;;;15.63;70.96
64876;BME280;51369;49.862;9.908;2022-11-03T14:03:27;97704.66;;;15.59;70.92
64876;BME280;51369;49.862;9.908;2022-11-03T14:05:53;97694.94;;;15.55;70.49
64876;BME280;51369;49.862;9.908;2022-11-03T14:08:18;97700.63;;;15.52;70.90
64876;BME280;51369;49.862;9.908;2022-11-03T14:10:44;97699.09;;;15.48;70.90